Time;durP1;ratioP1;P1;durP2;ratioP2;P2;SDS_P1;SDS_P2;PMS_P1;PMS_P2;Temp;Humidity;BMP_temperature;BMP_pressure;BME280_temperature;BME280_humidity;BME280_pressure;Samples;Min_cycle;Max_cycle;Signal;HPM_P1;HPM_P2
2021/10/30 00:04:44;;;;;;;6.40;4.10;;;;;;;11.57;59.57;99699.56;8726243;33;21717;-77
2021/10/30 00:09:47;;;;;;;5.25;4.05;;;;;;;11.45;59.88;99706.13;8717638;33;20239;-77
2021/10/30 00:14:52;;;;;;;5.72;4.32;;;;;;;11.48;60.01;99708.53;8714761;33;20202;-77
2021/10/30 00:19:55;;;;;;;5.20;4.20;;;;;;;11.48;60.01;99701.31;8716314;33;20524;-77
2021/10/30 00:24:59;;;;;;;6.05;4.60;;;;;;;11.52;59.96;99693.81;8713702;33;20290;-77
2021/10/30 00:30:05;;;;;;;8.13;4.10;;;;;;;11.57;60.14;99694.19;8716364;33;20258;-77
2021/10/30 00:35:09;;;;;;;7.32;4.53;;;;;;;11.53;60.03;99684.75;8716624;33;20268;-77
2021/10/30 00:40:13;;;;;;;7.72;5.05;;;;;;;11.53;60.08;99698.19;8715890;33;20250;-77
2021/10/30 00:45:17;;;;;;;5.65;4.65;;;;;;;11.52;60.08;99685.75;8715644;33;20180;-77
2021/10/30 00:50:20;;;;;;;5.72;4.25;;;;;;;11.53;60.40;99700.88;8716625;33;20449;-77
2021/10/30 00:55:24;;;;;;;7.70;5.20;;;;;;;11.46;60.60;99697.06;8717527;33;20539;-77
2021/10/30 01:00:30;;;;;;;9.27;5.20;;;;;;;11.43;60.87;99705.44;8717123;33;20150;-77
2021/10/30 01:05:33;;;;;;;8.60;5.30;;;;;;;11.46;60.76;99705.13;8713499;33;20579;-77
2021/10/30 01:10:36;;;;;;;8.73;5.20;;;;;;;11.51;60.50;99702.84;8715179;33;20242;-77
2021/10/30 01:15:41;;;;;;;8.23;5.30;;;;;;;11.54;60.59;99697.19;8716950;33;20231;-77
2021/10/30 01:20:46;;;;;;;7.82;5.80;;;;;;;11.41;61.22;99694.84;8718416;33;20234;-77
2021/10/30 01:25:57;;;;;;;10.15;6.60;;;;;;;11.16;62.68;99690.94;8718191;33;20187;-77
2021/10/30 01:31:00;;;;;;;9.20;6.70;;;;;;;10.83;63.98;99695.78;8774606;33;21403;-76
2021/10/30 01:36:09;;;;;;;13.25;7.82;;;;;;;10.44;65.44;99686.00;8772199;33;21528;-76
2021/10/30 01:41:12;;;;;;;13.27;8.77;;;;;;;10.33;66.22;99690.50;8772329;33;20282;-76
2021/10/30 01:46:17;;;;;;;13.68;9.45;;;;;;;10.13;66.77;99676.22;8771868;33;20269;-76
2021/10/30 01:51:23;;;;;;;17.25;11.05;;;;;;;9.84;67.64;99664.53;8772101;33;20179;-77
2021/10/30 01:56:27;;;;;;;16.27;10.40;;;;;;;9.82;67.67;99666.50;8771837;33;20243;-76
2021/10/30 02:01:31;;;;;;;16.63;11.15;;;;;;;9.42;68.90;99660.19;8772914;33;20258;-77
2021/10/30 02:06:36;;;;;;;21.60;10.93;;;;;;;9.34;69.10;99656.47;8776533;33;20152;-77
2021/10/30 02:11:39;;;;;;;20.98;12.30;;;;;;;9.02;70.09;99646.72;8776009;33;20247;-77
2021/10/30 02:16:42;;;;;;;21.85;11.73;;;;;;;8.87;70.43;99656.06;8775208;33;20644;-77
2021/10/30 02:21:47;;;;;;;21.85;12.50;;;;;;;8.75;70.53;99660.63;8776895;33;20933;-77
2021/10/30 02:26:50;;;;;;;22.45;13.23;;;;;;;8.68;70.78;99648.75;8751075;33;20175;-77
2021/10/30 02:31:53;;;;;;;20.58;12.73;;;;;;;8.60;71.09;99639.53;8751704;33;20198;-77
2021/10/30 02:36:58;;;;;;;22.38;13.45;;;;;;;8.50;71.37;99635.97;8776876;33;20183;-77
2021/10/30 02:42:01;;;;;;;27.65;14.70;;;;;;;8.44;71.61;99614.16;8777734;33;20511;-77
2021/10/30 02:47:05;;;;;;;22.67;12.05;;;;;;;8.51;71.42;99604.69;8777126;33;20778;-76
2021/10/30 02:52:10;;;;;;;23.05;14.20;;;;;;;8.42;71.51;99617.00;8777171;33;20384;-76
2021/10/30 02:57:13;;;;;;;19.98;12.93;;;;;;;8.42;71.29;99619.66;8776101;33;20647;-76
2021/10/30 03:02:16;;;;;;;23.23;12.35;;;;;;;8.40;71.40;99616.25;8776524;33;21473;-76
2021/10/30 03:07:22;;;;;;;25.35;13.02;;;;;;;8.37;71.53;99592.44;8775465;33;20642;-76
2021/10/30 03:12:26;;;;;;;25.50;13.93;;;;;;;8.34;71.51;99574.81;8775863;33;21577;-76
2021/10/30 03:17:29;;;;;;;27.42;14.05;;;;;;;8.32;71.49;99571.41;8774598;33;20373;-76
2021/10/30 03:22:33;;;;;;;22.33;13.38;;;;;;;8.30;71.45;99575.19;8775729;33;20970;-76
2021/10/30 03:27:37;;;;;;;21.33;12.85;;;;;;;8.22;71.43;99573.16;8774957;33;20239;-76
2021/10/30 03:32:40;;;;;;;20.58;12.07;;;;;;;8.36;71.01;99566.63;8774892;33;20187;-76
2021/10/30 03:37:45;;;;;;;25.90;13.85;;;;;;;8.30;71.07;99557.31;8774652;33;20270;-76
2021/10/30 03:42:48;;;;;;;25.42;14.05;;;;;;;8.13;71.61;99547.19;8751670;33;20319;-76
2021/10/30 03:47:51;;;;;;;23.27;13.05;;;;;;;8.13;71.51;99556.06;8749818;33;20187;-76
2021/10/30 03:52:55;;;;;;;28.70;13.68;;;;;;;8.15;71.37;99563.97;8774818;33;20178;-76
2021/10/30 03:57:58;;;;;;;23.90;13.38;;;;;;;8.21;70.90;99547.41;8772643;33;20285;-76
2021/10/30 04:03:02;;;;;;;27.17;15.60;;;;;;;8.02;71.35;99555.25;8774313;33;20209;-76
2021/10/30 04:08:08;;;;;;;28.75;13.32;;;;;;;8.05;71.55;99560.34;8774925;33;20171;-76
2021/10/30 04:13:11;;;;;;;25.60;14.43;;;;;;;8.13;71.24;99560.56;8774796;33;20537;-76
2021/10/30 04:18:15;;;;;;;27.55;14.60;;;;;;;8.09;71.22;99545.72;8749785;33;20183;-77
2021/10/30 04:23:19;;;;;;;26.73;14.55;;;;;;;8.02;71.42;99545.41;8774382;33;20187;-76
2021/10/30 04:28:22;;;;;;;26.63;13.95;;;;;;;8.04;71.38;99538.13;8749631;33;20486;-77
2021/10/30 04:33:25;;;;;;;28.70;14.85;;;;;;;8.04;71.34;99547.97;8773904;33;20504;-76
2021/10/30 04:38:30;;;;;;;25.77;13.63;;;;;;;8.11;71.27;99544.63;8772183;33;20512;-76
2021/10/30 04:43:33;;;;;;;24.10;14.77;;;;;;;8.09;71.12;99543.06;8774026;33;20681;-76
2021/10/30 04:48:37;;;;;;;26.63;14.85;;;;;;;8.02;71.09;99534.72;8774063;33;20740;-76
2021/10/30 04:53:44;;;;;;;29.50;15.13;;;;;;;8.09;70.89;99527.00;8747912;33;20803;-76
2021/10/30 04:58:48;;;;;;;25.67;14.23;;;;;;;8.00;70.97;99525.97;8748865;33;20492;-76
2021/10/30 05:03:50;;;;;;;25.92;14.77;;;;;;;7.97;71.05;99515.53;8773158;33;20208;-76
2021/10/30 05:08:55;;;;;;;28.08;15.38;;;;;;;8.01;70.86;99506.28;8774410;33;20196;-76
2021/10/30 05:13:58;;;;;;;24.27;14.60;;;;;;;8.07;70.67;99508.44;8772237;33;20953;-76
2021/10/30 05:19:01;;;;;;;27.30;14.98;;;;;;;8.03;70.70;99498.13;8773886;33;20883;-75
2021/10/30 05:24:06;;;;;;;27.20;14.82;;;;;;;8.00;70.73;99503.72;8828241;32;20212;-76
2021/10/30 05:29:09;;;;;;;25.67;13.80;;;;;;;8.00;70.58;99501.06;8832493;32;20455;-76
2021/10/30 05:34:12;;;;;;;28.05;13.45;;;;;;;8.09;70.44;99502.94;8833588;32;20147;-76
2021/10/30 05:39:49;;;;;;;25.83;12.52;;;;;;;8.04;70.37;99506.03;8770045;32;20230;-76
2021/10/30 05:44:53;;;;;;;26.95;13.43;;;;;;;8.03;70.29;99504.31;8834057;32;20169;-78
2021/10/30 05:49:56;;;;;;;25.77;13.02;;;;;;;8.13;69.94;99501.72;8834206;32;20950;-77
2021/10/30 05:55:00;;;;;;;23.15;12.40;;;;;;;8.17;69.37;99490.63;8834518;33;20501;-77
2021/10/30 06:00:05;;;;;;;20.95;13.00;;;;;;;8.17;69.57;99493.31;8838581;32;20281;-77
2021/10/30 06:05:14;;;;;;;23.27;12.57;;;;;;;8.21;69.39;99488.53;8837401;32;20546;-77
2021/10/30 06:10:19;;;;;;;20.10;12.13;;;;;;;8.30;69.17;99495.75;8809687;33;20232;-77
2021/10/30 06:15:22;;;;;;;21.65;12.38;;;;;;;8.34;68.75;99491.03;8834024;33;20166;-76
2021/10/30 06:20:25;;;;;;;22.02;12.25;;;;;;;8.25;68.32;99487.28;8800404;32;20158;-76
2021/10/30 06:25:31;;;;;;;18.88;11.57;;;;;;;8.39;68.19;99473.59;8837018;32;20146;-76
2021/10/30 06:30:34;;;;;;;21.75;12.00;;;;;;;8.38;67.94;99474.53;8838812;33;20234;-76
2021/10/30 06:35:37;;;;;;;20.20;11.88;;;;;;;8.35;68.08;99460.59;8812679;33;20277;-75
2021/10/30 06:40:42;;;;;;;20.37;12.87;;;;;;;8.25;67.96;99473.06;8838470;33;20481;-76
2021/10/30 06:45:45;;;;;;;24.08;12.40;;;;;;;8.33;67.58;99471.41;8838023;33;20284;-76
2021/10/30 06:50:48;;;;;;;19.98;11.20;;;;;;;8.39;67.22;99451.31;8814189;33;20181;-76
2021/10/30 06:55:54;;;;;;;19.02;11.52;;;;;;;8.48;67.03;99433.66;8838627;33;20190;-75
2021/10/30 07:00:58;;;;;;;19.23;10.93;;;;;;;8.58;67.27;99440.75;8812957;33;20824;-76
2021/10/30 07:06:01;;;;;;;16.60;10.48;;;;;;;8.71;66.80;99439.66;8838778;33;20680;-76
2021/10/30 07:11:06;;;;;;;18.35;10.30;;;;;;;8.78;66.55;99449.69;8837426;33;20217;-76
2021/10/30 07:16:14;;;;;;;19.42;10.70;;;;;;;8.86;66.69;99443.66;8838887;33;20441;-75
2021/10/30 07:21:18;;;;;;;18.83;10.35;;;;;;;8.89;66.98;99442.53;8813922;33;20205;-77
2021/10/30 07:26:22;;;;;;;19.17;9.68;;;;;;;8.85;66.57;99452.66;8837421;33;20186;-76
2021/10/30 07:31:25;;;;;;;14.48;9.38;;;;;;;8.76;65.77;99459.69;8836566;32;20158;-75
2021/10/30 07:36:28;;;;;;;19.42;10.50;;;;;;;8.83;65.86;99447.47;8838862;32;20239;-77
2021/10/30 07:41:33;;;;;;;19.52;10.43;;;;;;;8.84;66.07;99446.47;8837786;32;20146;-77
2021/10/30 07:46:36;;;;;;;15.02;9.23;;;;;;;8.68;65.58;99459.50;8837992;32;20665;-77
2021/10/30 07:51:39;;;;;;;13.07;7.85;;;;;;;9.04;65.00;99463.44;8836852;32;21220;-77
2021/10/30 07:56:43;;;;;;;16.00;8.45;;;;;;;9.17;64.44;99454.31;8810017;32;20434;-77
2021/10/30 08:01:46;;;;;;;13.00;7.80;;;;;;;9.12;64.35;99472.63;8836584;32;20208;-77
2021/10/30 08:06:50;;;;;;;11.30;8.00;;;;;;;9.21;63.85;99456.56;8836632;32;20178;-78
2021/10/30 08:11:54;;;;;;;12.80;8.30;;;;;;;9.18;64.10;99461.34;8838157;33;20716;-76
2021/10/30 08:16:57;;;;;;;14.88;9.25;;;;;;;9.13;65.02;99461.75;8834620;32;20224;-76
2021/10/30 08:22:01;;;;;;;14.32;8.55;;;;;;;8.90;66.51;99445.06;8836052;33;20241;-76
2021/10/30 08:27:06;;;;;;;16.52;8.75;;;;;;;8.74;68.27;99452.75;8834901;33;20182;-76
2021/10/30 08:32:10;;;;;;;14.82;8.85;;;;;;;8.69;69.04;99449.66;8836136;33;20452;-76
2021/10/30 08:37:13;;;;;;;13.48;8.82;;;;;;;8.73;68.55;99443.06;8838403;33;20200;-77
2021/10/30 08:42:18;;;;;;;14.95;8.90;;;;;;;8.62;67.47;99441.31;8837717;33;20879;-77
2021/10/30 08:47:23;;;;;;;15.07;9.02;;;;;;;8.45;70.66;99402.63;8835707;33;20201;-77
2021/10/30 08:52:26;;;;;;;15.52;9.73;;;;;;;8.30;74.34;99415.50;8835761;33;20173;-77
2021/10/30 08:57:30;;;;;;;21.58;13.25;;;;;;;8.27;75.69;99407.75;8835393;33;20198;-77
2021/10/30 09:02:34;;;;;;;15.60;9.10;;;;;;;8.30;76.14;99414.66;8835355;32;20143;-76
2021/10/30 09:07:38;;;;;;;15.93;9.65;;;;;;;8.36;77.08;99406.09;8832392;32;20403;-77
2021/10/30 09:12:51;;;;;;;13.05;8.68;;;;;;;8.36;75.56;99398.94;8837375;33;20147;-77
2021/10/30 09:17:54;;;;;;;15.60;8.38;;;;;;;8.46;74.37;99390.13;8835778;33;20638;-76
2021/10/30 09:22:57;;;;;;;15.07;8.82;;;;;;;8.58;73.62;99387.22;8833640;32;20234;-75
2021/10/30 09:28:02;;;;;;;15.63;9.18;;;;;;;8.70;72.73;99381.75;8833614;33;20273;-75
2021/10/30 09:33:08;;;;;;;14.90;9.05;;;;;;;8.76;71.31;99367.81;8834251;32;20146;-76
2021/10/30 09:38:12;;;;;;;15.68;8.75;;;;;;;8.84;69.97;99360.78;8717608;32;20532;-75
2021/10/30 09:43:19;;;;;;;13.30;8.95;;;;;;;8.98;70.23;99356.84;8714828;33;20601;-75
2021/10/30 09:48:27;;;;;;;15.07;9.60;;;;;;;9.12;71.93;99349.38;8714821;33;20193;-75
2021/10/30 09:53:35;;;;;;;15.73;9.38;;;;;;;9.17;72.08;99353.34;8689985;33;20245;-75
2021/10/30 09:58:43;;;;;;;15.35;8.63;;;;;;;9.13;68.39;99343.03;8718219;33;20184;-75
2021/10/30 10:03:48;;;;;;;15.00;9.32;;;;;;;9.25;67.35;99342.75;8719692;33;20172;-76
2021/10/30 10:08:52;;;;;;;17.70;10.30;;;;;;;9.32;67.01;99344.88;8718795;33;20179;-75
2021/10/30 10:13:57;;;;;;;13.65;8.82;;;;;;;9.40;67.99;99342.31;8718991;33;20223;-75
2021/10/30 10:19:00;;;;;;;16.92;10.02;;;;;;;9.39;66.30;99333.44;8718667;33;21888;-75
2021/10/30 10:24:10;;;;;;;13.13;9.05;;;;;;;9.50;66.16;99327.09;8693490;33;21636;-76
2021/10/30 10:29:27;;;;;;;14.90;10.13;;;;;;;9.46;64.05;99325.66;8715417;33;20636;-75
2021/10/30 10:34:32;;;;;;;17.95;10.80;;;;;;;9.73;63.19;99335.66;8718170;33;20144;-76
2021/10/30 10:39:35;;;;;;;16.38;10.40;;;;;;;10.06;62.51;99338.84;8711183;33;20506;-75
2021/10/30 10:45:02;;;;;;;14.75;9.27;;;;;;;10.18;60.86;99343.06;8694979;33;20221;-77
2021/10/30 10:50:12;;;;;;;14.95;9.02;;;;;;;10.20;60.99;99333.00;8720241;33;20230;-75
2021/10/30 10:55:15;;;;;;;13.32;8.80;;;;;;;10.03;61.07;99302.41;8718995;33;20479;-75
2021/10/30 11:00:21;;;;;;;15.38;9.48;;;;;;;10.14;60.75;99312.13;8693826;33;20205;-75
2021/10/30 11:05:31;;;;;;;15.88;9.35;;;;;;;10.12;60.58;99293.50;8718075;33;21999;-76
2021/10/30 11:10:51;;;;;;;14.07;9.45;;;;;;;10.20;60.02;99290.06;8718133;33;20220;-75
2021/10/30 11:15:56;;;;;;;14.32;9.20;;;;;;;10.33;59.57;99322.75;8715944;33;20180;-75
2021/10/30 11:21:15;;;;;;;19.65;10.20;;;;;;;10.36;59.75;99300.16;8717764;33;20856;-76
2021/10/30 11:26:22;;;;;;;17.08;10.45;;;;;;;10.26;60.04;99299.38;8717875;33;20179;-76
2021/10/30 11:31:30;;;;;;;20.00;11.75;;;;;;;10.25;61.46;99297.66;8718128;33;20248;-76
2021/10/30 11:36:35;;;;;;;19.35;11.55;;;;;;;10.12;62.52;99301.56;8715114;33;20187;-75
2021/10/30 11:41:41;;;;;;;22.33;11.98;;;;;;;9.98;62.92;99293.97;8713341;33;20193;-76
2021/10/30 11:46:48;;;;;;;19.48;11.93;;;;;;;9.57;67.35;99271.06;8739197;33;20530;-75
2021/10/30 11:51:51;;;;;;;20.63;12.07;;;;;;;9.11;70.90;99273.53;8691012;33;20187;-76
2021/10/30 11:56:54;;;;;;;20.83;12.02;;;;;;;8.70;72.24;99271.97;8715953;33;20257;-75
2021/10/30 12:02:00;;;;;;;19.60;12.43;;;;;;;8.51;75.86;99267.44;8691792;33;20183;-75
2021/10/30 12:07:05;;;;;;;21.42;13.30;;;;;;;8.42;77.22;99270.91;8674498;33;20257;-75
2021/10/30 12:12:11;;;;;;;24.95;14.25;;;;;;;8.53;78.48;99252.94;8716785;33;20433;-75
2021/10/30 12:17:24;;;;;;;20.70;13.57;;;;;;;8.69;78.50;99263.09;8718139;33;20152;-75
2021/10/30 12:22:30;;;;;;;25.17;16.02;;;;;;;8.53;78.63;99257.44;8715682;33;20187;-75
2021/10/30 12:27:33;;;;;;;25.67;13.88;;;;;;;8.30;79.62;99244.25;8738552;33;20187;-76
2021/10/30 12:32:43;;;;;;;21.58;13.30;;;;;;;8.22;81.14;99246.78;8716958;33;20850;-75
2021/10/30 12:37:47;;;;;;;24.20;15.25;;;;;;;8.13;82.97;99232.41;8716370;33;20141;-75
2021/10/30 12:43:08;;;;;;;25.10;14.13;;;;;;;8.10;83.55;99254.06;8716024;33;20266;-74
2021/10/30 12:48:16;;;;;;;27.40;15.55;;;;;;;8.06;82.68;99246.44;8717073;33;20250;-75
2021/10/30 12:53:25;;;;;;;26.63;15.73;;;;;;;7.87;83.45;99232.03;8738621;33;20606;-76
2021/10/30 12:58:39;;;;;;;30.63;17.45;;;;;;;7.79;84.06;99231.00;8715551;33;20647;-75
2021/10/30 13:03:44;;;;;;;31.67;18.38;;;;;;;7.84;83.60;99223.44;8691212;33;20767;-74
2021/10/30 13:08:51;;;;;;;31.08;17.45;;;;;;;7.84;83.13;99218.91;8716648;33;20238;-75
2021/10/30 13:13:56;;;;;;;33.33;18.90;;;;;;;7.85;84.25;99209.94;8737899;33;20195;-75
2021/10/30 13:19:00;;;;;;;30.13;16.50;;;;;;;7.63;100.00;99534.38;8691463;33;21182;-75
2021/10/30 13:24:04;;;;;;;36.58;18.52;;;;;;;7.70;100.00;99564.13;8715453;33;20511;-76
2021/10/30 13:29:07;;;;;;;32.75;17.80;;;;;;;7.86;100.00;99189.38;8714853;33;20346;-76
2021/10/30 13:34:12;;;;;;;31.00;17.98;;;;;;;7.85;89.19;99191.22;8715759;33;20156;-76
2021/10/30 13:39:15;;;;;;;36.00;17.60;;;;;;;7.73;86.58;99185.16;8714542;33;21535;-76
2021/10/30 13:44:19;;;;;;;31.60;16.65;;;;;;;7.73;85.94;99192.28;8715118;33;20168;-75
2021/10/30 13:49:24;;;;;;;32.10;18.38;;;;;;;7.63;85.26;99181.59;8738459;33;20435;-76
2021/10/30 13:54:27;;;;;;;31.48;16.42;;;;;;;7.74;85.51;99180.63;8715580;33;21168;-75
2021/10/30 13:59:30;;;;;;;32.55;17.67;;;;;;;7.81;85.55;99167.56;8716308;33;21124;-76
2021/10/30 14:04:35;;;;;;;39.15;19.25;;;;;;;7.79;85.24;99172.19;8703394;33;20144;-76
2021/10/30 14:09:38;;;;;;;27.88;16.77;;;;;;;7.76;84.80;99165.28;8714833;33;20290;-75
2021/10/30 14:14:41;;;;;;;29.52;15.85;;;;;;;7.66;84.26;99162.59;8715052;33;20249;-75
2021/10/30 14:19:45;;;;;;;24.20;15.30;;;;;;;7.81;84.07;99170.25;8737644;33;20171;-75
2021/10/30 14:24:48;;;;;;;27.15;14.23;;;;;;;7.86;84.29;99162.66;8690353;33;20205;-75
2021/10/30 14:29:52;;;;;;;26.45;15.27;;;;;;;7.78;84.35;99168.69;8715031;33;20718;-75
2021/10/30 14:34:57;;;;;;;27.15;16.23;;;;;;;7.65;83.67;99163.59;8696470;33;20243;-76
2021/10/30 14:39:59;;;;;;;28.50;16.27;;;;;;;8.02;84.18;99159.47;8715460;33;20917;-75
2021/10/30 14:45:06;;;;;;;31.95;16.50;;;;;;;8.16;83.49;99153.72;8635066;33;20899;-76
2021/10/30 14:50:11;;;;;;;29.15;15.75;;;;;;;8.22;82.75;99150.47;8660732;33;20133;-75
2021/10/30 14:55:14;;;;;;;28.88;15.48;;;;;;;8.38;82.03;99156.13;8661506;33;20157;-75
2021/10/30 15:00:20;;;;;;;26.92;14.88;;;;;;;8.53;81.87;99147.69;8661618;33;20184;-75
2021/10/30 15:05:25;;;;;;;22.90;14.32;;;;;;;8.70;80.84;99146.16;8659983;33;20424;-75
2021/10/30 15:10:28;;;;;;;28.13;15.15;;;;;;;8.95;80.04;99142.88;8661525;33;20199;-75
2021/10/30 15:15:32;;;;;;;25.60;12.98;;;;;;;9.02;78.80;99138.63;8660923;33;20210;-75
2021/10/30 15:20:37;;;;;;;20.40;12.15;;;;;;;9.21;78.87;99143.06;8661416;33;20287;-75
2021/10/30 15:25:40;;;;;;;20.63;12.30;;;;;;;9.24;78.24;99144.63;8661484;33;20280;-75
2021/10/30 15:30:43;;;;;;;20.13;11.07;;;;;;;9.24;78.06;99126.72;8661219;33;21065;-75
2021/10/30 15:35:52;;;;;;;17.85;10.05;;;;;;;9.26;78.13;99124.72;8660459;33;20157;-75
2021/10/30 15:40:56;;;;;;;16.40;9.25;;;;;;;9.46;78.09;99130.88;8661164;33;21715;-75
2021/10/30 15:45:59;;;;;;;17.15;9.15;;;;;;;9.58;78.01;99128.00;8660858;33;20190;-76
2021/10/30 15:51:05;;;;;;;17.13;10.00;;;;;;;9.52;77.08;99134.78;8706516;33;20214;-75
2021/10/30 15:56:08;;;;;;;22.60;13.02;;;;;;;9.53;76.92;99131.13;8660944;33;20198;-75
2021/10/30 16:01:11;;;;;;;17.05;11.30;;;;;;;9.55;77.81;99134.50;8660718;33;20267;-75
2021/10/30 16:06:16;;;;;;;11.95;7.43;;;;;;;9.62;77.17;99142.78;8660694;33;20180;-75
2021/10/30 16:11:20;;;;;;;10.45;6.93;;;;;;;9.86;75.61;99132.38;8660599;33;21248;-75
2021/10/30 16:16:23;;;;;;;9.38;5.20;;;;;;;10.17;74.53;99146.31;8661172;33;20229;-75
2021/10/30 16:21:28;;;;;;;8.43;4.80;;;;;;;10.28;73.78;99144.38;8661688;33;20184;-75
2021/10/30 16:26:31;;;;;;;7.78;4.90;;;;;;;10.39;73.62;99149.53;8661838;33;20733;-75
2021/10/30 16:31:37;;;;;;;8.88;5.18;;;;;;;10.46;74.10;99166.72;8659615;33;20145;-76
2021/10/30 16:36:44;;;;;;;6.78;4.70;;;;;;;10.58;73.76;99164.63;8659683;33;20125;-76
2021/10/30 16:41:47;;;;;;;8.23;4.78;;;;;;;10.53;74.08;99162.44;8659776;33;20168;-76
2021/10/30 16:46:51;;;;;;;8.50;4.85;;;;;;;10.61;74.86;99167.88;8657907;33;20247;-76
2021/10/30 16:51:56;;;;;;;7.35;4.57;;;;;;;10.58;75.30;99164.63;8657607;33;20334;-76
2021/10/30 16:57:00;;;;;;;7.95;4.45;;;;;;;10.46;74.23;99171.25;8660647;33;20141;-76
2021/10/30 17:02:03;;;;;;;8.15;4.93;;;;;;;10.56;74.46;99174.72;8659418;33;20189;-76
2021/10/30 17:07:08;;;;;;;7.68;5.45;;;;;;;10.45;73.84;99174.91;8658101;33;20237;-76
2021/10/30 17:12:12;;;;;;;9.27;4.85;;;;;;;10.37;74.41;99187.28;8658778;33;20196;-75
2021/10/30 17:17:15;;;;;;;9.13;5.15;;;;;;;10.51;74.87;99180.53;8659007;33;20257;-76
2021/10/30 17:22:20;;;;;;;7.53;5.45;;;;;;;10.46;74.43;99182.00;8658726;33;20331;-76
2021/10/30 17:27:23;;;;;;;9.75;6.20;;;;;;;10.38;74.49;99186.25;8658226;33;20196;-76
2021/10/30 17:32:26;;;;;;;10.00;5.97;;;;;;;10.36;73.93;99195.47;8658627;33;20206;-76
2021/10/30 17:37:30;;;;;;;8.10;5.50;;;;;;;10.48;74.71;99196.09;8658618;33;20746;-77
2021/10/30 17:42:33;;;;;;;9.07;5.07;;;;;;;10.37;74.33;99199.84;8716153;33;20302;-76
2021/10/30 17:47:39;;;;;;;7.80;5.43;;;;;;;10.38;74.91;99202.38;8715690;33;20156;-76
2021/10/30 17:52:43;;;;;;;10.07;4.97;;;;;;;10.39;74.57;99204.09;8693480;33;20241;-76
2021/10/30 17:57:46;;;;;;;9.70;5.50;;;;;;;10.51;74.65;99207.38;8722115;33;20164;-76
2021/10/30 18:02:54;;;;;;;7.88;5.25;;;;;;;10.52;74.45;99214.44;8718588;33;20165;-77
2021/10/30 18:08:00;;;;;;;9.20;5.90;;;;;;;10.43;74.74;99219.88;8716365;33;20446;-77
2021/10/30 18:13:03;;;;;;;10.40;5.25;;;;;;;10.53;74.55;99223.31;8715338;33;20282;-77
2021/10/30 18:18:06;;;;;;;9.18;5.30;;;;;;;10.51;74.71;99225.34;8718218;33;20750;-77
2021/10/30 18:23:10;;;;;;;10.32;5.65;;;;;;;10.64;74.42;99247.28;8721605;33;20233;-76
2021/10/30 18:28:14;;;;;;;11.02;5.35;;;;;;;10.54;75.00;99249.19;8722940;33;20182;-76
2021/10/30 18:33:17;;;;;;;7.10;4.82;;;;;;;10.73;74.24;99248.22;8719864;33;20180;-77
2021/10/30 18:38:22;;;;;;;8.00;5.07;;;;;;;10.76;74.44;99247.91;8719563;33;20445;-77
2021/10/30 18:43:25;;;;;;;8.90;4.93;;;;;;;10.68;74.61;99245.13;8720239;33;20228;-76
2021/10/30 18:48:28;;;;;;;6.22;4.30;;;;;;;10.70;74.21;99252.03;8720871;33;20641;-77
2021/10/30 18:53:32;;;;;;;5.93;4.78;;;;;;;10.66;74.40;99247.97;8720026;33;20232;-76
2021/10/30 18:58:37;;;;;;;7.45;5.30;;;;;;;10.59;74.00;99254.94;8720760;33;20447;-77
2021/10/30 19:03:41;;;;;;;8.65;5.10;;;;;;;10.54;74.50;99265.31;8720042;33;20739;-76
2021/10/30 19:08:46;;;;;;;10.13;5.07;;;;;;;10.53;74.82;99261.78;8719748;33;20210;-77
2021/10/30 19:13:50;;;;;;;8.68;5.07;;;;;;;10.53;74.40;99271.66;8720017;33;20432;-76
2021/10/30 19:18:53;;;;;;;7.28;5.40;;;;;;;10.60;74.94;99273.59;8720538;33;20258;-77
2021/10/30 19:23:57;;;;;;;8.02;6.03;;;;;;;10.63;74.29;99275.13;8720102;33;20191;-76
2021/10/30 19:29:03;;;;;;;7.80;5.30;;;;;;;10.66;74.50;99290.09;8719966;33;20259;-77
2021/10/30 19:34:13;;;;;;;9.60;5.55;;;;;;;10.71;74.51;99288.63;8720637;33;21388;-76
2021/10/30 19:39:18;;;;;;;11.10;6.20;;;;;;;10.69;74.37;99293.31;8720170;33;20518;-76
2021/10/30 19:44:22;;;;;;;8.02;6.25;;;;;;;10.68;74.54;99294.31;8720054;33;20662;-77
2021/10/30 19:49:25;;;;;;;9.45;6.18;;;;;;;10.63;73.62;99296.59;8718707;33;20214;-78
2021/10/30 19:54:29;;;;;;;8.98;6.60;;;;;;;10.59;74.23;99296.06;8725198;33;20580;-76
2021/10/30 19:59:32;;;;;;;9.15;6.53;;;;;;;10.56;74.33;99284.81;8695184;33;20152;-77
2021/10/30 20:04:35;;;;;;;9.43;6.35;;;;;;;10.51;74.42;99285.25;8721436;33;20137;-77
2021/10/30 20:09:41;;;;;;;11.15;6.68;;;;;;;10.78;74.20;99305.00;8719952;33;21533;-76
2021/10/30 20:14:45;;;;;;;10.30;6.82;;;;;;;10.75;74.21;99311.53;8719232;33;20902;-77
2021/10/30 20:19:48;;;;;;;10.10;6.63;;;;;;;10.76;73.77;99312.38;8694753;33;20252;-77
2021/10/30 20:24:52;;;;;;;11.68;7.43;;;;;;;10.77;74.50;99314.88;8718871;33;21033;-77
2021/10/30 20:29:56;;;;;;;10.68;6.97;;;;;;;10.80;73.75;99316.41;8720971;33;20644;-78
2021/10/30 20:34:59;;;;;;;10.18;7.22;;;;;;;10.86;73.70;99326.59;8728619;33;20248;-78
2021/10/30 20:40:05;;;;;;;10.30;6.68;;;;;;;10.83;73.85;99319.66;8712523;33;20196;-77
2021/10/30 20:45:08;;;;;;;9.32;6.80;;;;;;;10.64;74.19;99333.22;8714064;33;20175;-77
2021/10/30 20:50:12;;;;;;;9.75;6.90;;;;;;;10.74;73.68;99328.63;8702560;33;20156;-78
2021/10/30 20:55:17;;;;;;;11.52;7.55;;;;;;;10.83;73.39;99332.22;8723591;33;20259;-78
2021/10/30 21:00:20;;;;;;;9.45;6.68;;;;;;;10.78;73.58;99334.56;8720470;33;20657;-77
2021/10/30 21:05:23;;;;;;;10.45;7.00;;;;;;;10.84;73.40;99345.53;8721191;33;20277;-77
2021/10/30 21:10:28;;;;;;;11.43;7.03;;;;;;;10.76;74.10;99358.88;8721947;33;20183;-77
2021/10/30 21:15:31;;;;;;;13.38;7.00;;;;;;;10.79;73.89;99355.03;8692887;33;20183;-76
2021/10/30 21:20:34;;;;;;;11.77;7.70;;;;;;;10.85;73.73;99367.84;8715978;33;20233;-76
2021/10/30 21:25:39;;;;;;;12.00;7.10;;;;;;;10.67;74.11;99373.22;8691375;33;21181;-76
2021/10/30 21:30:42;;;;;;;12.65;8.23;;;;;;;10.82;74.10;99371.69;8715614;33;20153;-76
2021/10/30 21:35:46;;;;;;;12.23;7.70;;;;;;;10.72;74.85;99370.88;8692053;33;20242;-76
2021/10/30 21:40:50;;;;;;;12.13;8.02;;;;;;;10.82;74.21;99373.53;8716428;33;20822;-77
2021/10/30 21:45:54;;;;;;;14.00;8.07;;;;;;;10.82;74.75;99381.59;8689915;33;20140;-78
2021/10/30 21:50:57;;;;;;;14.95;8.38;;;;;;;10.93;74.06;99384.06;8718155;33;20192;-77
2021/10/30 21:56:02;;;;;;;13.00;8.45;;;;;;;10.97;74.13;99392.66;8715544;33;20233;-76
2021/10/30 22:01:09;;;;;;;11.18;7.70;;;;;;;10.82;74.54;99392.34;8706452;33;20830;-78
2021/10/30 22:06:13;;;;;;;14.07;8.18;;;;;;;10.80;74.70;99395.16;8721198;33;20767;-77
2021/10/30 22:11:18;;;;;;;13.68;8.90;;;;;;;10.79;74.92;99423.03;8717208;33;20219;-77
2021/10/30 22:16:21;;;;;;;14.80;8.80;;;;;;;10.92;74.63;99427.22;8717841;33;20187;-77
2021/10/30 22:21:24;;;;;;;13.73;8.65;;;;;;;10.98;74.37;99429.31;8720302;33;20210;-78
2021/10/30 22:26:28;;;;;;;13.52;8.70;;;;;;;10.96;74.54;99437.50;8719347;33;20534;-78
2021/10/30 22:31:32;;;;;;;13.27;8.55;;;;;;;11.01;74.76;99445.13;8718784;33;20176;-77
2021/10/30 22:36:35;;;;;;;14.23;8.63;;;;;;;11.00;74.80;99451.50;8694013;33;20263;-78
2021/10/30 22:41:39;;;;;;;14.50;8.35;;;;;;;10.92;75.32;99460.31;8733173;33;20199;-78
2021/10/30 22:46:43;;;;;;;14.02;8.30;;;;;;;10.94;75.91;99454.75;8705229;33;20248;-78
2021/10/30 22:51:46;;;;;;;14.18;9.30;;;;;;;10.84;76.61;99455.66;8718658;33;20187;-78
2021/10/30 22:56:51;;;;;;;13.93;8.68;;;;;;;10.99;76.28;99457.84;8712486;33;20179;-78
2021/10/30 23:01:54;;;;;;;15.23;8.98;;;;;;;10.98;76.28;99464.22;8693846;33;20179;-78
2021/10/30 23:06:58;;;;;;;13.15;8.75;;;;;;;10.95;76.64;99469.91;8696202;33;20148;-78
2021/10/30 23:12:05;;;;;;;16.52;9.65;;;;;;;10.94;76.67;99482.50;8721622;33;20183;-77
2021/10/30 23:17:08;;;;;;;12.75;8.23;;;;;;;10.99;76.33;99474.81;8697036;33;20191;-77
2021/10/30 23:22:12;;;;;;;11.70;7.93;;;;;;;11.07;76.00;99484.81;8723246;33;20633;-78
2021/10/30 23:27:17;;;;;;;12.07;8.32;;;;;;;11.16;75.80;99486.66;8722089;33;20252;-78
2021/10/30 23:32:20;;;;;;;14.75;9.55;;;;;;;11.21;75.63;99492.41;8697604;33;20650;-78
2021/10/30 23:37:23;;;;;;;13.60;8.25;;;;;;;11.12;76.08;99496.00;8697890;33;21407;-78
2021/10/30 23:42:29;;;;;;;13.55;8.10;;;;;;;11.31;75.34;99510.34;8724301;33;20171;-78